createdAt,value
2018-03-01T01:11:39.241Z,27.20
2018-03-01T02:50:36.870Z,31.30
2018-03-01T04:30:55.196Z,28.00
2018-03-01T04:36:05.007Z,26.40
2018-03-01T04:38:33.239Z,25.60
2018-03-01T04:41:01.454Z,26.40
2018-03-01T04:43:30.566Z,26.70
2018-03-01T04:45:59.703Z,26.60
2018-03-01T04:48:29.510Z,27.20
2018-03-01T04:50:58.116Z,26.80
2018-03-01T04:53:26.576Z,26.80
2018-03-01T04:55:54.906Z,26.80
2018-03-01T04:58:26.222Z,26.10
2018-03-01T05:00:54.851Z,26.80
2018-03-01T05:03:23.331Z,27.30
2018-03-01T05:05:51.725Z,26.80
2018-03-01T05:08:22.301Z,27.60
2018-03-01T05:10:50.531Z,27.70
2018-03-01T05:13:18.691Z,28.00
2018-03-01T05:21:51.161Z,28.30
2018-03-01T05:24:23.951Z,28.50
2018-03-01T05:26:52.266Z,28.30
2018-03-01T05:29:20.523Z,28.00
2018-03-01T05:31:49.533Z,27.00
2018-03-01T05:34:20.408Z,27.00
2018-03-01T05:36:50.902Z,27.00
2018-03-01T05:39:19.113Z,27.00
2018-03-01T05:41:48.671Z,26.90
2018-03-01T05:44:20.469Z,26.90
2018-03-01T05:46:53.874Z,27.40
2018-03-01T05:49:24.711Z,28.20
2018-03-01T05:51:57.725Z,28.40
2018-03-01T05:54:40.403Z,27.60
2018-03-01T05:57:13.061Z,28.10
2018-03-01T05:59:41.999Z,28.00
2018-03-01T06:02:14.176Z,27.90
2018-03-01T06:04:55.395Z,28.40
2018-03-01T06:07:34.215Z,27.80
2018-03-01T06:10:03.534Z,27.00
2018-03-01T06:12:41.816Z,26.30
2018-03-01T06:15:12.076Z,27.80
2018-03-01T06:17:42.348Z,28.20
2018-03-01T06:20:12.098Z,28.20
2018-03-01T06:22:41.807Z,27.20
2018-03-01T06:25:19.634Z,26.40
2018-03-01T06:27:52.668Z,26.90
2018-03-01T06:30:22.013Z,27.10
2018-03-01T06:32:51.173Z,27.60
2018-03-01T06:35:21.719Z,28.00
2018-03-01T06:37:51.901Z,27.20
2018-03-01T06:40:22.380Z,26.60
2018-03-01T06:42:53.306Z,27.50
2018-03-01T06:45:22.891Z,27.30
2018-03-01T06:47:51.864Z,26.80
2018-03-01T06:50:21.249Z,26.80
2018-03-01T06:52:49.473Z,26.00
2018-03-01T06:55:24.829Z,26.20
2018-03-01T06:57:53.065Z,24.70
2018-03-01T07:00:22.537Z,25.90
2018-03-01T07:02:51.429Z,25.10
2018-03-01T07:05:27.301Z,26.10
2018-03-01T07:08:00.301Z,25.30
2018-03-01T07:10:30.403Z,25.40
2018-03-01T07:12:59.152Z,24.90
2018-03-01T07:15:29.970Z,25.70
2018-03-01T07:17:59.174Z,25.10
2018-03-01T07:20:29.716Z,26.30
2018-03-01T07:22:58.719Z,25.90
2018-03-01T07:25:33.561Z,25.90
2018-03-01T07:28:02.621Z,25.50
2018-03-01T07:30:32.929Z,24.90
2018-03-01T07:33:01.219Z,25.00
2018-03-01T07:35:38.153Z,23.70
2018-03-01T07:38:11.792Z,23.70
2018-03-01T07:40:42.238Z,23.60
2018-03-01T07:43:16.922Z,24.60
2018-03-01T07:45:47.009Z,24.60
2018-03-01T07:48:16.206Z,23.80
2018-03-01T07:50:47.380Z,23.80
2018-03-01T07:53:15.563Z,23.60
2018-03-01T07:55:47.150Z,23.80
2018-03-01T07:58:15.400Z,23.80
2018-03-01T08:00:46.436Z,23.30
2018-03-01T08:03:14.666Z,22.80
2018-03-01T08:05:46.987Z,23.10
2018-03-01T08:08:15.293Z,23.00
2018-03-01T08:10:44.747Z,23.80
2018-03-01T08:13:13.793Z,22.20
2018-03-01T08:15:44.523Z,22.40
2018-03-01T08:18:12.736Z,22.20
2018-03-01T08:20:41.173Z,22.10
2018-03-01T08:23:15.927Z,21.40
2018-03-01T08:25:58.486Z,21.90
2018-03-01T09:38:05.928Z,18.80
2018-03-01T09:40:37.751Z,17.90
2018-03-01T09:45:46.275Z,18.30
2018-03-01T09:50:56.549Z,18.70
2018-03-01T10:01:31.939Z,17.30
2018-03-01T10:04:10.530Z,17.20
2018-03-01T10:06:42.998Z,18.40
2018-03-01T10:09:17.797Z,18.10
2018-03-01T10:11:49.460Z,18.80
2018-03-01T10:14:19.093Z,18.70
2018-03-01T10:16:49.783Z,18.70
2018-03-01T10:19:21.327Z,18.40
2018-03-01T10:21:54.577Z,18.80
2018-03-01T10:24:29.794Z,18.30
2018-03-01T10:50:59.620Z,16.90
2018-03-01T10:53:29.689Z,16.70
2018-03-01T10:55:58.777Z,16.50
2018-03-01T10:58:32.083Z,16.30
2018-03-01T11:01:01.928Z,17.70
2018-03-01T11:03:33.493Z,16.60
2018-03-01T11:06:03.251Z,17.60
2018-03-01T11:08:32.242Z,17.90
2018-03-01T11:11:05.842Z,16.80
2018-03-01T11:13:35.010Z,17.60
2018-03-01T11:16:04.414Z,17.50
2018-03-01T11:18:33.568Z,17.40
2018-03-01T11:23:45.590Z,17.50
2018-03-01T11:26:14.042Z,17.80
2018-03-01T11:28:43.058Z,18.00
2018-03-01T11:31:11.834Z,17.50
2018-03-01T11:33:47.473Z,17.60
2018-03-01T11:36:20.146Z,17.90
2018-03-01T11:38:54.570Z,17.60
2018-03-01T11:43:56.029Z,18.40
2018-03-01T11:46:26.254Z,18.10
2018-03-01T11:51:32.743Z,17.80
2018-03-01T11:56:38.015Z,17.70
2018-03-01T11:59:07.773Z,17.10
2018-03-01T12:01:36.053Z,17.10
2018-03-01T12:04:24.547Z,17.50
2018-03-01T12:06:52.722Z,17.30
2018-03-01T12:09:23.764Z,16.80
2018-03-01T12:11:52.879Z,16.80
2018-03-01T12:14:24.716Z,16.80
2018-03-01T12:16:52.953Z,17.70
2018-03-01T12:19:21.274Z,17.10
2018-03-01T12:21:49.457Z,16.60
2018-03-01T12:24:31.903Z,16.40
2018-03-01T12:27:12.640Z,16.30
2018-03-01T12:29:40.799Z,15.30
2018-03-01T12:32:25.137Z,15.80
2018-03-01T12:34:53.356Z,15.10
2018-03-01T12:37:22.434Z,15.10
2018-03-01T12:39:50.863Z,14.70
2018-03-01T12:42:19.305Z,15.30
2018-03-01T12:44:48.560Z,15.00
2018-03-01T12:47:17.737Z,14.60
2018-03-01T12:49:47.366Z,14.70
2018-03-01T12:52:15.540Z,14.40
2018-03-01T12:54:43.881Z,14.40
2018-03-01T12:57:12.139Z,14.20
2018-03-01T12:59:41.666Z,15.00
2018-03-01T13:02:09.859Z,14.70
2018-03-01T13:04:47.225Z,14.50
2018-03-01T13:07:15.471Z,14.70
2018-03-01T13:09:45.731Z,13.90
2018-03-01T13:12:17.187Z,14.50
2018-03-01T13:14:47.376Z,13.80
2018-03-01T13:17:16.462Z,14.00
2018-03-01T13:19:44.666Z,13.70
2018-03-01T13:22:12.863Z,13.70
2018-03-01T13:25:01.079Z,13.40
2018-03-01T13:27:30.067Z,13.00
2018-03-01T13:30:05.851Z,13.10
2018-03-01T13:32:48.907Z,12.70
2018-03-01T13:35:34.766Z,13.40
2018-03-01T13:38:03.758Z,13.60
2018-03-01T13:40:31.929Z,13.60
2018-03-01T13:43:02.312Z,13.00
2018-03-01T13:48:30.059Z,12.90
2018-03-01T13:59:45.989Z,14.00
2018-03-01T14:02:15.273Z,14.00
2018-03-01T14:04:50.563Z,14.10
2018-03-01T14:07:36.508Z,14.40
2018-03-01T14:10:04.912Z,14.00
2018-03-01T14:12:52.378Z,14.10
2018-03-01T14:15:26.885Z,14.50
2018-03-01T14:18:00.742Z,14.10
2018-03-01T14:23:33.962Z,15.30
2018-03-01T14:28:44.695Z,14.90
2018-03-01T14:31:15.384Z,14.90
2018-03-01T14:33:46.364Z,14.90
2018-03-01T14:36:15.441Z,14.20
2018-03-01T14:38:44.597Z,14.10
2018-03-01T14:41:15.374Z,15.20
2018-03-01T14:43:43.547Z,14.80
2018-03-01T14:46:11.741Z,15.30
2018-03-01T14:48:39.889Z,16.10
2018-03-01T14:51:08.839Z,16.50
2018-03-01T14:53:38.700Z,17.20
2018-03-01T14:56:06.878Z,17.30
2018-03-01T14:58:35.102Z,16.50
2018-03-01T15:01:03.336Z,17.30
2018-03-01T15:03:32.304Z,17.40
2018-03-01T15:06:02.819Z,18.00
2018-03-01T15:08:31.106Z,18.00
2018-03-01T15:11:02.495Z,17.80
2018-03-01T15:13:34.100Z,17.80
2018-03-01T15:16:04.259Z,18.30
2018-03-01T15:18:32.442Z,18.50
2018-03-01T15:21:02.754Z,18.00
2018-03-01T15:23:31.564Z,18.00
2018-03-01T15:26:02.124Z,18.60
2018-03-01T15:28:31.366Z,18.50
2018-03-01T15:31:00.492Z,18.50
2018-03-01T15:33:28.674Z,18.50
2018-03-01T15:35:58.284Z,18.40
2018-03-01T15:38:26.453Z,19.30
2018-03-01T15:40:56.863Z,19.10
2018-03-01T15:43:25.036Z,18.50
2018-03-01T15:45:53.966Z,18.90
2018-03-01T15:48:22.753Z,18.90
2018-03-01T15:50:53.574Z,19.30
2018-03-01T15:53:21.757Z,18.50
2018-03-01T15:55:49.969Z,18.60
2018-03-01T15:58:18.172Z,19.10
2018-03-01T16:00:48.570Z,18.40
2018-03-01T16:03:17.516Z,18.70
2018-03-01T16:05:48.591Z,18.60
2018-03-01T16:08:16.754Z,18.70
2018-03-01T16:10:48.930Z,19.30
2018-03-01T16:13:17.325Z,19.10
2018-03-01T16:15:47.167Z,19.30
2018-03-01T16:18:16.244Z,19.20
2018-03-01T16:20:47.509Z,19.40
2018-03-01T16:23:16.562Z,19.40
2018-03-01T16:25:46.962Z,19.60
2018-03-01T16:28:15.129Z,19.90
2018-03-01T16:30:50.625Z,20.30
2018-03-01T16:33:19.549Z,20.80
2018-03-01T16:35:50.062Z,20.90
2018-03-01T16:38:18.222Z,20.80
2018-03-01T16:40:49.514Z,21.30
2018-03-01T16:43:18.083Z,20.90
2018-03-01T16:45:48.160Z,21.30
2018-03-01T16:48:17.352Z,21.00
2018-03-01T16:50:50.518Z,21.00
2018-03-01T16:53:19.636Z,21.20
2018-03-01T16:55:49.234Z,21.80
2018-03-01T16:58:17.392Z,21.80
2018-03-01T17:00:47.505Z,21.70
2018-03-01T17:03:15.710Z,21.30
2018-03-01T17:05:45.856Z,21.40
2018-03-01T17:08:14.088Z,21.90
2018-03-01T17:10:42.339Z,21.90
2018-03-01T17:13:10.618Z,21.80
2018-03-01T17:15:38.907Z,21.80
2018-03-01T17:18:07.057Z,22.50
2018-03-01T17:20:37.119Z,21.90
2018-03-01T17:23:05.286Z,21.90
2018-03-01T17:25:36.136Z,21.80
2018-03-01T17:28:04.509Z,21.80
2018-03-01T17:30:34.480Z,21.80
2018-03-01T17:33:03.554Z,21.80
2018-03-01T17:35:32.275Z,22.50
2018-03-01T17:38:00.732Z,22.10
2018-03-01T17:40:29.364Z,22.20
2018-03-01T17:42:57.666Z,22.40
2018-03-01T17:45:31.567Z,23.00
2018-03-01T17:48:00.773Z,22.90
2018-03-01T17:50:29.510Z,22.90
2018-03-01T17:52:58.002Z,23.00
2018-03-01T17:55:27.796Z,23.00
2018-03-01T17:57:57.211Z,22.30
2018-03-01T18:00:25.896Z,22.20
2018-03-01T18:02:58.000Z,21.80
2018-03-01T18:05:27.001Z,21.80
2018-03-01T18:07:56.033Z,22.00
2018-03-01T18:10:26.444Z,22.00
2018-03-01T18:12:55.391Z,22.50
2018-03-01T18:15:25.486Z,22.30
2018-03-01T18:17:54.171Z,21.90
2018-03-01T18:20:23.114Z,21.90
2018-03-01T18:22:52.048Z,22.10
2018-03-01T18:25:23.928Z,22.50
2018-03-01T18:27:59.052Z,21.80
2018-03-01T18:30:27.547Z,22.50
2018-03-01T18:32:56.590Z,22.50
2018-03-01T18:35:26.452Z,22.80
2018-03-01T18:37:55.541Z,22.80
2018-03-01T18:40:28.738Z,22.90
2018-03-01T18:43:01.038Z,22.90
2018-03-01T18:45:31.628Z,21.90
2018-03-01T18:47:59.898Z,21.80
2018-03-01T18:50:29.001Z,21.20
2018-03-01T18:52:57.544Z,21.90
2018-03-01T18:55:29.535Z,21.30
2018-03-01T18:57:57.983Z,21.90
2018-03-01T19:00:27.653Z,22.20
2018-03-01T19:02:56.162Z,22.30
2018-03-01T19:05:26.386Z,22.20
2018-03-01T19:07:55.335Z,22.80
2018-03-01T19:10:24.816Z,22.70
2018-03-01T19:12:54.162Z,21.80
2018-03-01T19:15:26.056Z,22.50
2018-03-01T19:17:56.107Z,22.30
2018-03-01T19:20:24.879Z,22.30
2018-03-01T19:22:56.244Z,22.90
2018-03-01T19:25:34.268Z,23.70
2018-03-01T19:28:04.294Z,24.00
2018-03-01T19:30:37.684Z,22.50
2018-03-01T19:33:09.512Z,24.00
2018-03-01T19:35:41.112Z,24.30
2018-03-01T19:38:16.019Z,23.40
2018-03-01T19:40:53.472Z,22.70
2018-03-01T19:46:00.824Z,22.80
2018-03-01T19:48:33.200Z,23.00
2018-03-01T19:51:01.667Z,23.00
2018-03-01T19:53:31.312Z,23.00
2018-03-01T19:56:04.550Z,22.90
2018-03-01T20:03:44.376Z,22.80
2018-03-01T20:06:17.314Z,23.10
2018-03-01T20:14:50.671Z,23.70
2018-03-01T20:17:24.079Z,24.70
2018-03-01T20:20:09.147Z,23.60
2018-03-01T21:30:00.408Z,28.50
2018-03-01T21:32:33.722Z,29.00
2018-03-01T21:35:04.517Z,28.80
2018-03-01T21:37:33.038Z,28.70
2018-03-01T21:40:03.407Z,29.00
2018-03-01T21:45:11.095Z,29.40
2018-03-01T21:47:39.313Z,29.40
2018-03-01T21:50:08.018Z,30.70
2018-03-01T21:52:36.682Z,33.00
2018-03-01T21:58:08.357Z,34.60
2018-03-01T22:00:40.764Z,34.50
2018-03-01T22:03:31.196Z,34.80
2018-03-01T22:06:00.752Z,34.70
2018-03-01T22:08:33.964Z,34.60
2018-03-01T22:11:02.479Z,33.60
2018-03-01T22:13:31.399Z,32.70
2018-03-01T22:15:59.662Z,31.10
2018-03-01T22:18:27.835Z,29.20
2018-03-01T22:20:57.480Z,29.10
2018-03-01T22:23:25.658Z,27.20
2018-03-01T22:25:53.921Z,26.30
2018-03-01T22:28:22.703Z,26.40
2018-03-01T22:30:51.254Z,26.10
2018-03-01T22:33:20.149Z,26.10
2018-03-01T22:35:52.240Z,26.20
2018-03-01T22:38:20.463Z,26.20
2018-03-01T22:41:02.370Z,25.60
2018-03-01T22:43:31.478Z,25.30
2018-03-01T22:45:59.662Z,25.60
2018-03-01T22:48:29.890Z,26.00
2018-03-01T22:50:59.073Z,25.70
2018-03-01T22:53:28.931Z,26.60
2018-03-01T22:55:57.948Z,27.20
2018-03-01T22:58:26.142Z,27.90
2018-03-01T23:00:54.326Z,28.70
2018-03-01T23:03:22.861Z,28.90
2018-03-01T23:05:51.426Z,28.80
2018-03-01T23:08:20.628Z,29.90
2018-03-01T23:10:50.789Z,31.60
2018-03-01T23:13:20.102Z,32.90
2018-03-01T23:15:53.561Z,33.50
2018-03-01T23:18:21.785Z,34.70
2018-03-01T23:20:57.457Z,34.90
2018-03-01T23:23:25.629Z,35.50
2018-03-01T23:25:53.797Z,35.20
2018-03-01T23:28:22.002Z,35.70
2018-03-01T23:30:51.075Z,35.20
2018-03-01T23:33:23.161Z,36.10
2018-03-01T23:35:55.843Z,37.60
2018-03-01T23:38:24.959Z,36.60
2018-03-01T23:40:53.686Z,36.30
2018-03-01T23:43:22.358Z,35.10
2018-03-01T23:45:50.582Z,35.80
2018-03-01T23:48:22.711Z,35.20
2018-03-01T23:50:52.204Z,33.80
2018-03-01T23:53:21.207Z,32.90
2018-03-01T23:55:50.424Z,33.20
2018-03-01T23:58:20.736Z,35.10
